createdAt,value
2019-05-29T00:00:16.647Z,100.00
2019-05-29T00:01:56.205Z,100.00
2019-05-29T00:03:35.378Z,100.00
2019-05-29T00:05:14.297Z,100.00
2019-05-29T00:06:50.311Z,100.00
2019-05-29T00:08:25.963Z,100.00
2019-05-29T00:10:06.549Z,100.00
2019-05-29T00:11:44.895Z,100.00
2019-05-29T00:13:22.308Z,100.00
2019-05-29T00:14:58.213Z,100.00
2019-05-29T00:16:33.970Z,100.00
2019-05-29T00:18:12.402Z,100.00
2019-05-29T00:19:50.259Z,100.00
2019-05-29T00:21:40.330Z,100.00
2019-05-29T00:23:16.435Z,100.00
2019-05-29T00:24:53.702Z,100.00
2019-05-29T00:26:30.027Z,100.00
2019-05-29T00:28:08.911Z,100.00
2019-05-29T00:29:45.167Z,100.00
2019-05-29T00:31:20.584Z,100.00
2019-05-29T00:32:57.605Z,100.00
2019-05-29T00:34:32.764Z,100.00
2019-05-29T00:36:08.607Z,100.00
2019-05-29T00:37:44.482Z,100.00
2019-05-29T00:39:20.782Z,100.00
2019-05-29T00:40:56.244Z,100.00
2019-05-29T00:42:32.099Z,100.00
2019-05-29T00:44:09.071Z,100.00
2019-05-29T00:45:45.099Z,100.00
2019-05-29T00:47:20.711Z,100.00
2019-05-29T00:49:04.131Z,100.00
2019-05-29T00:50:39.770Z,100.00
2019-05-29T00:52:16.637Z,100.00
2019-05-29T00:53:51.845Z,100.00
2019-05-29T00:57:32.278Z,100.00
2019-05-29T00:59:11.198Z,100.00
2019-05-29T01:00:46.313Z,100.00
2019-05-29T01:02:22.406Z,100.00
2019-05-29T01:03:58.014Z,100.00
2019-05-29T01:05:33.981Z,100.00
2019-05-29T01:07:10.196Z,100.00
2019-05-29T01:08:46.041Z,100.00
2019-05-29T01:10:21.465Z,100.00
2019-05-29T01:11:57.324Z,100.00
2019-05-29T01:13:33.618Z,100.00
2019-05-29T01:15:09.728Z,100.00
2019-05-29T01:16:44.790Z,100.00
2019-05-29T01:18:22.232Z,100.00
2019-05-29T01:19:57.979Z,100.00
2019-05-29T01:21:34.293Z,100.00
2019-05-29T01:23:12.749Z,100.00
2019-05-29T01:24:49.426Z,100.00
2019-05-29T01:26:25.047Z,100.00
2019-05-29T01:28:01.166Z,100.00
2019-05-29T01:29:36.359Z,100.00
2019-05-29T01:31:13.534Z,100.00
2019-05-29T01:32:49.508Z,100.00
2019-05-29T01:34:25.252Z,100.00
2019-05-29T01:36:00.450Z,100.00
2019-05-29T01:37:36.295Z,100.00
2019-05-29T01:39:12.169Z,100.00
2019-05-29T01:40:48.390Z,100.00
2019-05-29T01:42:27.645Z,100.00
2019-05-29T01:44:03.641Z,100.00
2019-05-29T01:45:39.110Z,100.00
2019-05-29T01:47:15.338Z,100.00
2019-05-29T01:48:50.783Z,100.00
2019-05-29T01:50:27.934Z,100.00
2019-05-29T01:52:03.224Z,100.00
2019-05-29T01:53:38.948Z,100.00
2019-05-29T01:55:14.204Z,100.00
2019-05-29T01:56:50.975Z,100.00
2019-05-29T01:58:28.012Z,100.00
2019-05-29T02:00:09.224Z,100.00
2019-05-29T02:01:45.444Z,100.00
2019-05-29T02:03:21.960Z,100.00
2019-05-29T02:04:58.094Z,100.00
2019-05-29T02:06:33.135Z,100.00
2019-05-29T02:08:09.079Z,100.00
2019-05-29T02:09:44.945Z,100.00
2019-05-29T02:11:23.265Z,100.00
2019-05-29T02:12:58.958Z,100.00
2019-05-29T02:14:34.993Z,100.00
2019-05-29T02:16:10.302Z,100.00
2019-05-29T02:17:46.341Z,100.00
2019-05-29T02:19:21.903Z,100.00
2019-05-29T02:20:58.705Z,100.00
2019-05-29T02:22:33.854Z,100.00
2019-05-29T02:24:09.923Z,100.00
2019-05-29T02:25:45.434Z,100.00
2019-05-29T02:27:21.607Z,100.00
2019-05-29T02:29:00.100Z,100.00
2019-05-29T02:30:36.140Z,100.00
2019-05-29T02:32:13.468Z,100.00
2019-05-29T02:33:50.110Z,100.00
2019-05-29T02:35:27.445Z,100.00
2019-05-29T02:37:04.158Z,100.00
2019-05-29T02:38:39.579Z,100.00
2019-05-29T02:40:16.195Z,100.00
2019-05-29T02:41:52.259Z,100.00
2019-05-29T02:43:29.979Z,100.00
2019-05-29T02:45:06.817Z,100.00
2019-05-29T02:46:42.754Z,100.00
2019-05-29T02:48:18.244Z,100.00
2019-05-29T02:49:55.492Z,100.00
2019-05-29T02:51:31.020Z,100.00
2019-05-29T02:53:07.047Z,100.00
2019-05-29T02:54:42.245Z,100.00
2019-05-29T02:56:20.414Z,100.00
2019-05-29T02:57:58.114Z,100.00
2019-05-29T02:59:34.320Z,100.00
2019-05-29T03:01:09.973Z,100.00
2019-05-29T03:02:47.311Z,100.00
2019-05-29T03:04:28.052Z,100.00
2019-05-29T03:06:04.432Z,100.00
2019-05-29T03:07:40.472Z,100.00
2019-05-29T03:09:16.730Z,100.00
2019-05-29T03:10:51.909Z,100.00
2019-05-29T03:12:29.400Z,100.00
2019-05-29T03:14:04.542Z,100.00
2019-05-29T03:15:43.585Z,100.00
2019-05-29T03:17:20.539Z,100.00
2019-05-29T03:18:56.266Z,100.00
2019-05-29T03:20:32.382Z,100.00
2019-05-29T03:22:11.123Z,100.00
2019-05-29T03:23:46.670Z,100.00
2019-05-29T03:25:22.463Z,100.00
2019-05-29T03:26:57.708Z,100.00
2019-05-29T03:28:35.117Z,100.00
2019-05-29T03:30:13.335Z,100.00
2019-05-29T03:31:52.153Z,100.00
2019-05-29T03:33:36.065Z,100.00
2019-05-29T03:35:07.591Z,100.00
2019-05-29T03:36:47.782Z,100.00
2019-05-29T03:38:20.799Z,100.00
2019-05-29T03:39:55.950Z,100.00
2019-05-29T03:41:32.763Z,100.00
2019-05-29T03:43:08.620Z,100.00
2019-05-29T03:44:44.658Z,100.00
2019-05-29T03:46:31.171Z,100.00
2019-05-29T03:47:57.558Z,100.00
2019-05-29T03:49:35.250Z,100.00
2019-05-29T03:51:11.519Z,100.00
2019-05-29T03:52:46.874Z,100.00
2019-05-29T03:54:22.737Z,100.00
2019-05-29T03:55:57.910Z,100.00
2019-05-29T03:57:33.975Z,100.00
2019-05-29T03:59:10.376Z,100.00
2019-05-29T04:00:49.555Z,100.00
2019-05-29T04:02:26.736Z,100.00
2019-05-29T04:04:02.849Z,100.00
2019-05-29T04:05:38.196Z,100.00
2019-05-29T04:07:13.948Z,100.00
2019-05-29T04:08:49.734Z,100.00
2019-05-29T04:10:32.977Z,100.00
2019-05-29T04:12:08.462Z,100.00
2019-05-29T04:13:43.611Z,100.00
2019-05-29T04:15:45.104Z,100.00
2019-05-29T04:17:35.656Z,100.00
2019-05-29T04:19:11.421Z,100.00
2019-05-29T04:20:46.761Z,100.00
2019-05-29T04:22:27.961Z,100.00
2019-05-29T04:24:04.007Z,100.00
2019-05-29T04:25:42.759Z,100.00
2019-05-29T04:27:19.633Z,100.00
2019-05-29T04:28:55.884Z,100.00
2019-05-29T04:30:32.063Z,100.00
2019-05-29T04:32:08.308Z,100.00
2019-05-29T04:33:43.801Z,100.00
2019-05-29T04:35:19.506Z,100.00
2019-05-29T04:36:54.611Z,100.00
2019-05-29T04:38:31.599Z,100.00
2019-05-29T04:40:09.573Z,100.00
2019-05-29T04:41:45.275Z,100.00
2019-05-29T04:43:22.019Z,100.00
2019-05-29T04:44:57.750Z,100.00
2019-05-29T04:46:36.219Z,100.00
2019-05-29T04:48:12.676Z,100.00
2019-05-29T04:49:49.510Z,100.00
2019-05-29T04:51:28.984Z,100.00
2019-05-29T04:53:04.207Z,100.00
2019-05-29T04:54:41.118Z,100.00
2019-05-29T04:56:17.480Z,100.00
2019-05-29T04:57:53.265Z,100.00
2019-05-29T04:59:28.822Z,100.00
2019-05-29T05:01:05.035Z,100.00
2019-05-29T05:02:40.198Z,100.00
2019-05-29T05:04:17.151Z,100.00
2019-05-29T05:05:53.425Z,100.00
2019-05-29T05:07:29.686Z,100.00
2019-05-29T05:09:06.399Z,100.00
2019-05-29T05:10:43.039Z,100.00
2019-05-29T05:12:20.370Z,100.00
2019-05-29T05:13:56.588Z,100.00
2019-05-29T05:15:32.265Z,100.00
2019-05-29T05:17:08.539Z,100.00
2019-05-29T05:18:43.734Z,100.00
2019-05-29T05:20:21.543Z,100.00
2019-05-29T05:21:56.676Z,100.00
2019-05-29T05:23:32.560Z,100.00
2019-05-29T05:25:11.987Z,100.00
2019-05-29T05:26:49.778Z,100.00
2019-05-29T05:28:25.761Z,100.00
2019-05-29T05:30:08.894Z,100.00
2019-05-29T05:31:44.258Z,100.00
2019-05-29T05:33:19.353Z,100.00
2019-05-29T05:34:55.770Z,100.00
2019-05-29T05:36:35.079Z,100.00
2019-05-29T05:38:11.595Z,100.00
2019-05-29T05:39:49.421Z,100.00
2019-05-29T05:41:30.848Z,100.00
2019-05-29T05:43:06.514Z,100.00
2019-05-29T05:44:42.428Z,100.00
2019-05-29T05:46:18.978Z,100.00
2019-05-29T05:47:57.851Z,100.00
2019-05-29T05:49:31.685Z,100.00
2019-05-29T05:51:07.412Z,100.00
2019-05-29T05:52:42.729Z,100.00
2019-05-29T05:54:24.560Z,100.00
2019-05-29T05:55:57.018Z,100.00
2019-05-29T05:57:33.594Z,100.00
2019-05-29T05:59:08.988Z,100.00
2019-05-29T06:00:45.424Z,100.00
2019-05-29T06:02:26.445Z,100.00
2019-05-29T06:04:02.292Z,100.00
2019-05-29T06:05:38.189Z,100.00
2019-05-29T06:07:17.512Z,100.00
2019-05-29T06:08:52.928Z,100.00
2019-05-29T06:10:28.694Z,100.00
2019-05-29T06:12:04.803Z,100.00
2019-05-29T06:13:40.569Z,100.00
2019-05-29T06:15:17.159Z,100.00
2019-05-29T06:16:53.120Z,100.00
2019-05-29T06:18:28.408Z,100.00
2019-05-29T06:20:05.766Z,100.00
2019-05-29T06:21:46.649Z,100.00
2019-05-29T06:23:22.644Z,100.00
2019-05-29T06:25:02.227Z,100.00
2019-05-29T06:26:43.356Z,100.00
2019-05-29T06:28:20.164Z,100.00
2019-05-29T06:29:58.030Z,100.00
2019-05-29T06:31:35.576Z,100.00
2019-05-29T06:33:22.391Z,100.00
2019-05-29T06:35:06.546Z,100.00
2019-05-29T06:36:43.765Z,100.00
2019-05-29T06:38:23.822Z,100.00
2019-05-29T06:40:00.516Z,100.00
2019-05-29T06:41:37.779Z,100.00
2019-05-29T06:43:25.047Z,100.00
2019-05-29T06:45:03.933Z,100.00
2019-05-29T06:46:40.500Z,100.00
2019-05-29T06:48:40.720Z,100.00
2019-05-29T06:49:59.706Z,100.00
2019-05-29T06:52:17.217Z,100.00
2019-05-29T06:53:51.765Z,100.00
2019-05-29T06:55:28.024Z,100.00
2019-05-29T06:57:04.377Z,100.00
2019-05-29T06:58:40.067Z,100.00
2019-05-29T07:00:34.445Z,100.00
2019-05-29T07:01:56.167Z,100.00
2019-05-29T07:03:32.111Z,100.00
2019-05-29T07:05:07.274Z,100.00
2019-05-29T07:06:43.434Z,100.00
2019-05-29T07:08:37.438Z,100.00
2019-05-29T07:10:00.614Z,100.00
2019-05-29T07:11:37.085Z,100.00
2019-05-29T07:13:13.014Z,100.00
2019-05-29T07:14:48.562Z,100.00
2019-05-29T07:16:40.931Z,100.00
2019-05-29T07:18:02.546Z,100.00
2019-05-29T07:19:48.998Z,100.00
2019-05-29T07:21:15.865Z,100.00
2019-05-29T07:22:56.171Z,100.00
2019-05-29T07:24:43.493Z,100.00
2019-05-29T07:26:21.007Z,100.00
2019-05-29T07:27:56.519Z,100.00
2019-05-29T07:29:33.930Z,100.00
2019-05-29T07:31:09.565Z,100.00
2019-05-29T07:32:56.763Z,100.00
2019-05-29T07:34:24.428Z,100.00
2019-05-29T07:36:00.607Z,100.00
2019-05-29T07:37:37.739Z,100.00
2019-05-29T07:39:14.456Z,100.00
2019-05-29T07:40:57.982Z,100.00
2019-05-29T07:42:36.517Z,100.00
2019-05-29T07:44:18.775Z,100.00
2019-05-29T07:45:55.601Z,100.00
2019-05-29T07:47:30.734Z,100.00
2019-05-29T07:49:11.697Z,100.00
2019-05-29T07:50:48.424Z,100.00
2019-05-29T07:52:25.190Z,100.00
2019-05-29T07:54:01.283Z,100.00
2019-05-29T07:55:44.736Z,100.00
2019-05-29T07:57:21.630Z,100.00
2019-05-29T07:59:03.069Z,100.00
2019-05-29T08:00:36.066Z,100.00
2019-05-29T08:02:11.277Z,100.00
2019-05-29T08:03:47.511Z,100.00
2019-05-29T08:05:24.915Z,100.00
2019-05-29T08:07:06.579Z,100.00
2019-05-29T08:08:43.214Z,100.00
2019-05-29T08:10:19.520Z,100.00
2019-05-29T08:11:55.259Z,100.00
2019-05-29T08:13:33.536Z,100.00
2019-05-29T08:15:08.737Z,100.00
2019-05-29T08:16:46.010Z,100.00
2019-05-29T08:18:23.325Z,100.00
2019-05-29T08:20:07.134Z,100.00
2019-05-29T08:21:44.202Z,100.00
2019-05-29T08:23:20.521Z,100.00
2019-05-29T08:24:59.593Z,100.00
2019-05-29T08:26:35.212Z,100.00
2019-05-29T08:28:16.222Z,100.00
2019-05-29T08:29:52.411Z,100.00
2019-05-29T08:31:30.354Z,100.00
2019-05-29T08:33:05.798Z,100.00
2019-05-29T08:34:45.279Z,100.00
2019-05-29T08:36:20.646Z,100.00
2019-05-29T08:37:56.433Z,100.00
2019-05-29T08:39:37.074Z,100.00
2019-05-29T08:41:12.896Z,100.00
2019-05-29T08:42:55.187Z,100.00
2019-05-29T08:44:33.245Z,100.00
2019-05-29T08:46:09.862Z,100.00
2019-05-29T08:47:49.992Z,100.00
2019-05-29T08:49:31.440Z,100.00
2019-05-29T08:51:09.795Z,100.00
2019-05-29T08:52:50.131Z,100.00
2019-05-29T08:54:26.609Z,100.00
2019-05-29T08:56:04.662Z,100.00
2019-05-29T08:57:39.809Z,100.00
2019-05-29T08:59:15.670Z,100.00
2019-05-29T09:00:54.776Z,100.00
2019-05-29T09:02:31.817Z,100.00
2019-05-29T09:04:06.659Z,100.00
2019-05-29T09:05:42.926Z,100.00
2019-05-29T09:07:19.868Z,100.00
2019-05-29T09:08:56.253Z,100.00
2019-05-29T09:10:35.365Z,100.00
2019-05-29T09:12:12.240Z,100.00
2019-05-29T09:13:50.036Z,100.00
2019-05-29T09:15:28.473Z,100.00
2019-05-29T09:17:03.649Z,100.00
2019-05-29T09:18:39.410Z,100.00
2019-05-29T09:20:30.835Z,100.00
2019-05-29T09:21:52.339Z,100.00
2019-05-29T09:23:30.492Z,100.00
2019-05-29T09:25:15.423Z,100.00
2019-05-29T09:26:53.383Z,100.00
2019-05-29T09:28:27.207Z,100.00
2019-05-29T09:30:07.695Z,100.00
2019-05-29T09:31:43.805Z,100.00
2019-05-29T09:33:21.991Z,100.00
2019-05-29T09:34:59.171Z,100.00
2019-05-29T09:36:47.069Z,100.00
2019-05-29T09:38:24.962Z,100.00
2019-05-29T09:40:03.417Z,100.00
2019-05-29T09:41:41.458Z,100.00
2019-05-29T09:43:20.475Z,100.00
2019-05-29T09:44:58.143Z,100.00
2019-05-29T09:46:33.438Z,100.00
2019-05-29T09:48:10.004Z,100.00
2019-05-29T09:49:46.579Z,100.00
2019-05-29T09:51:27.326Z,100.00
2019-05-29T09:53:15.070Z,100.00
2019-05-29T09:54:56.236Z,100.00
2019-05-29T09:56:33.584Z,100.00
2019-05-29T09:58:13.947Z,100.00
2019-05-29T09:59:51.083Z,100.00
2019-05-29T10:01:30.371Z,100.00
2019-05-29T10:03:07.937Z,100.00
2019-05-29T10:04:51.414Z,100.00
2019-05-29T10:06:29.889Z,98.53
2019-05-29T10:08:16.942Z,100.00
2019-05-29T10:10:05.175Z,100.00
2019-05-29T10:11:51.729Z,100.00
2019-05-29T10:13:32.880Z,99.31
2019-05-29T10:15:10.497Z,100.00
2019-05-29T10:16:56.847Z,100.00
2019-05-29T10:18:41.402Z,98.32
2019-05-29T10:20:30.340Z,95.82
2019-05-29T10:22:18.548Z,100.00
2019-05-29T10:24:03.992Z,100.00
2019-05-29T10:25:50.102Z,90.57
2019-05-29T10:27:54.107Z,91.66
2019-05-29T10:29:34.303Z,89.14
2019-05-29T10:31:15.476Z,92.50
2019-05-29T10:32:58.996Z,100.00
2019-05-29T10:34:37.105Z,88.45
2019-05-29T10:36:12.209Z,93.91
2019-05-29T10:37:50.693Z,99.56
2019-05-29T10:39:30.733Z,84.83
2019-05-29T10:41:11.988Z,85.86
2019-05-29T10:42:51.568Z,86.37
2019-05-29T10:44:28.283Z,84.86
2019-05-29T10:46:03.660Z,76.36
2019-05-29T10:47:43.599Z,76.61
2019-05-29T10:49:22.337Z,83.00
2019-05-29T10:51:03.267Z,84.89
2019-05-29T10:52:44.470Z,88.53
2019-05-29T10:54:24.533Z,78.09
2019-05-29T10:56:03.579Z,80.00
2019-05-29T10:57:52.923Z,89.00
2019-05-29T10:59:33.730Z,71.74
2019-05-29T11:01:11.493Z,81.63
2019-05-29T11:02:48.138Z,66.68
2019-05-29T11:04:27.277Z,68.38
2019-05-29T11:06:05.766Z,59.25
2019-05-29T11:07:45.824Z,50.61
2019-05-29T11:09:43.837Z,56.33
2019-05-29T11:11:25.430Z,53.68
2019-05-29T11:13:01.395Z,60.05
2019-05-29T11:14:40.033Z,59.60
2019-05-29T11:16:15.205Z,74.81
2019-05-29T11:18:04.897Z,70.48
2019-05-29T11:19:43.151Z,70.79
2019-05-29T11:21:19.410Z,71.76
2019-05-29T11:22:57.807Z,67.20
2019-05-29T11:24:42.850Z,68.97
2019-05-29T11:26:21.124Z,68.91
2019-05-29T11:27:56.746Z,74.02
2019-05-29T11:29:34.470Z,76.12
2019-05-29T11:31:13.917Z,71.98
2019-05-29T11:32:57.515Z,58.16
2019-05-29T11:34:33.037Z,57.86
2019-05-29T11:36:13.127Z,63.12
2019-05-29T11:37:50.511Z,68.27
2019-05-29T11:39:28.354Z,66.22
2019-05-29T11:41:25.109Z,63.38
2019-05-29T11:42:47.657Z,60.94
2019-05-29T11:44:23.487Z,57.89
2019-05-29T11:46:02.636Z,60.01
2019-05-29T11:47:40.548Z,59.62
2019-05-29T11:49:20.403Z,54.75
2019-05-29T11:50:58.434Z,59.49
2019-05-29T11:52:50.462Z,58.04
2019-05-29T11:54:37.576Z,48.79
2019-05-29T11:56:13.390Z,73.42
2019-05-29T11:57:57.829Z,45.79
2019-05-29T11:59:33.713Z,48.09
2019-05-29T12:01:09.416Z,48.66
2019-05-29T12:02:48.295Z,56.79
2019-05-29T12:04:32.699Z,58.86
2019-05-29T12:06:18.955Z,60.39
2019-05-29T12:08:06.985Z,71.84
2019-05-29T12:09:43.037Z,67.56
2019-05-29T12:11:19.130Z,76.35
2019-05-29T12:12:55.503Z,84.93
2019-05-29T12:14:31.104Z,85.99
2019-05-29T12:16:07.166Z,85.26
2019-05-29T12:17:57.931Z,86.63
2019-05-29T12:19:35.189Z,83.94
2019-05-29T12:21:15.561Z,80.28
2019-05-29T12:23:16.610Z,87.34
2019-05-29T12:24:29.366Z,95.75
2019-05-29T12:26:19.733Z,88.34
2019-05-29T12:27:42.030Z,85.28
2019-05-29T12:29:18.175Z,79.83
2019-05-29T12:30:55.023Z,82.03
2019-05-29T12:32:31.067Z,78.35
2019-05-29T12:34:17.785Z,80.37
2019-05-29T12:35:50.286Z,77.76
2019-05-29T12:37:29.302Z,76.03
2019-05-29T12:39:09.197Z,88.69
2019-05-29T12:40:49.415Z,77.11
2019-05-29T12:42:25.738Z,73.59
2019-05-29T12:44:02.204Z,71.26
2019-05-29T12:45:39.820Z,70.84
2019-05-29T12:47:29.217Z,75.32
2019-05-29T12:49:13.469Z,79.49
2019-05-29T12:51:33.196Z,90.73
2019-05-29T12:52:53.614Z,83.81
2019-05-29T12:54:29.695Z,87.15
2019-05-29T12:56:07.426Z,89.77
2019-05-29T12:57:48.457Z,91.83
2019-05-29T12:59:25.719Z,88.72
2019-05-29T13:01:10.017Z,94.15
2019-05-29T13:02:48.221Z,96.80
2019-05-29T13:04:25.629Z,91.35
2019-05-29T13:06:02.474Z,96.12
2019-05-29T13:07:38.269Z,100.00
2019-05-29T13:09:17.799Z,100.00
2019-05-29T13:10:54.279Z,94.65
2019-05-29T13:12:39.785Z,94.96
2019-05-29T13:14:25.354Z,86.99
2019-05-29T13:16:20.582Z,91.09
2019-05-29T13:18:02.677Z,83.83
2019-05-29T13:19:36.726Z,82.76
2019-05-29T13:21:18.856Z,72.37
2019-05-29T13:23:05.422Z,83.59
2019-05-29T13:24:43.246Z,72.29
2019-05-29T13:26:19.742Z,73.92
2019-05-29T13:27:59.894Z,76.51
2019-05-29T13:29:35.798Z,83.58
2019-05-29T13:31:19.595Z,75.26
2019-05-29T13:33:02.187Z,74.83
2019-05-29T13:34:37.045Z,70.00
2019-05-29T13:36:16.330Z,79.83
2019-05-29T13:37:52.906Z,83.66
2019-05-29T13:39:29.964Z,91.59
2019-05-29T13:41:09.584Z,83.98
2019-05-29T13:42:48.720Z,74.60
2019-05-29T13:44:29.161Z,79.25
2019-05-29T13:46:08.384Z,77.99
2019-05-29T13:47:43.616Z,68.77
2019-05-29T13:49:20.636Z,74.68
2019-05-29T13:50:56.925Z,69.73
2019-05-29T13:52:36.686Z,66.53
2019-05-29T13:54:17.928Z,62.17
2019-05-29T13:55:52.268Z,75.13
2019-05-29T13:57:31.504Z,76.29
2019-05-29T13:59:08.401Z,68.27
2019-05-29T14:00:43.797Z,70.52
2019-05-29T14:02:19.932Z,64.24
2019-05-29T14:03:55.627Z,73.25
2019-05-29T14:05:33.502Z,80.97
2019-05-29T14:07:08.855Z,69.10
2019-05-29T14:08:44.865Z,69.92
2019-05-29T14:10:21.460Z,67.95
2019-05-29T14:11:58.921Z,60.18
2019-05-29T14:13:36.355Z,58.24
2019-05-29T14:15:12.748Z,54.79
2019-05-29T14:16:51.225Z,65.36
2019-05-29T14:18:51.257Z,68.31
2019-05-29T14:20:32.545Z,70.11
2019-05-29T14:22:11.255Z,70.80
2019-05-29T14:23:54.362Z,76.04
2019-05-29T14:25:40.049Z,77.72
2019-05-29T14:27:35.091Z,81.73
2019-05-29T14:29:16.102Z,74.94
2019-05-29T14:30:55.273Z,84.97
2019-05-29T14:32:31.729Z,90.43
2019-05-29T14:34:07.571Z,90.73
2019-05-29T14:35:44.381Z,94.56
2019-05-29T14:37:19.933Z,92.64
2019-05-29T14:38:55.606Z,94.91
2019-05-29T14:40:43.492Z,100.00
2019-05-29T14:42:30.408Z,88.48
2019-05-29T14:44:07.935Z,80.32
2019-05-29T14:45:45.753Z,79.69
2019-05-29T14:47:21.536Z,80.25
2019-05-29T14:49:06.278Z,74.28
2019-05-29T14:50:44.925Z,83.03
2019-05-29T14:52:29.591Z,72.43
2019-05-29T14:54:11.004Z,75.98
2019-05-29T14:55:49.618Z,72.49
2019-05-29T14:57:27.143Z,71.15
2019-05-29T14:59:03.229Z,75.78
2019-05-29T15:00:40.696Z,74.80
2019-05-29T15:02:23.594Z,72.84
2019-05-29T15:04:00.398Z,78.67
2019-05-29T15:05:40.365Z,84.71
2019-05-29T15:07:15.677Z,81.98
2019-05-29T15:08:52.007Z,89.55
2019-05-29T15:10:29.352Z,88.74
2019-05-29T15:12:06.032Z,85.22
2019-05-29T15:13:44.981Z,90.63
2019-05-29T15:15:23.325Z,81.95
2019-05-29T15:17:00.723Z,99.88
2019-05-29T15:18:44.542Z,88.03
2019-05-29T15:20:26.596Z,76.97
2019-05-29T15:22:04.962Z,73.88
2019-05-29T15:23:43.794Z,77.92
2019-05-29T15:25:24.214Z,67.65
2019-05-29T15:27:03.038Z,64.51
2019-05-29T15:28:40.752Z,71.17
2019-05-29T15:30:23.775Z,60.59
2019-05-29T15:32:02.852Z,72.24
2019-05-29T15:33:41.112Z,59.04
2019-05-29T15:35:20.873Z,63.64
2019-05-29T15:36:59.810Z,63.82
2019-05-29T15:38:35.391Z,67.93
2019-05-29T15:40:12.718Z,64.21
2019-05-29T15:41:48.846Z,70.95
2019-05-29T15:43:27.387Z,62.10
2019-05-29T15:45:04.444Z,66.82
2019-05-29T15:46:42.051Z,72.18
2019-05-29T15:48:18.154Z,73.54
2019-05-29T15:49:54.187Z,72.25
2019-05-29T15:51:29.330Z,64.62
2019-05-29T15:53:06.980Z,66.83
2019-05-29T15:54:46.167Z,71.91
2019-05-29T15:56:27.953Z,63.76
2019-05-29T15:58:01.343Z,72.37
2019-05-29T15:59:39.921Z,75.37
2019-05-29T16:01:43.442Z,78.78
2019-05-29T16:03:20.614Z,77.46
2019-05-29T16:05:03.895Z,78.83
2019-05-29T16:06:45.164Z,80.55
2019-05-29T16:08:20.071Z,81.77
2019-05-29T16:10:02.562Z,86.62
2019-05-29T16:11:38.847Z,78.10
2019-05-29T16:13:17.276Z,79.80
2019-05-29T16:14:56.902Z,76.89
2019-05-29T16:16:35.572Z,83.91
2019-05-29T16:18:23.011Z,75.48
2019-05-29T16:19:56.569Z,67.49
2019-05-29T16:21:32.311Z,64.17
2019-05-29T16:23:28.314Z,65.78
2019-05-29T16:24:50.414Z,63.52
2019-05-29T16:26:30.417Z,57.93
2019-05-29T16:28:19.355Z,64.82
2019-05-29T16:30:00.783Z,59.94
2019-05-29T16:31:42.273Z,65.91
2019-05-29T16:33:20.135Z,64.26
2019-05-29T16:35:01.590Z,63.98
2019-05-29T16:36:43.853Z,65.40
2019-05-29T16:38:26.506Z,55.22
2019-05-29T16:40:09.245Z,69.87
2019-05-29T16:41:46.704Z,52.83
2019-05-29T16:43:29.344Z,53.03
2019-05-29T16:45:09.135Z,54.50
2019-05-29T16:46:53.324Z,60.62
2019-05-29T16:48:39.043Z,55.41
2019-05-29T16:50:23.126Z,62.79
2019-05-29T16:52:07.422Z,54.70
2019-05-29T16:53:47.927Z,56.72
2019-05-29T16:55:25.034Z,62.70
2019-05-29T16:57:01.236Z,62.87
2019-05-29T16:58:56.583Z,60.18
2019-05-29T17:00:41.970Z,58.90
2019-05-29T17:02:38.133Z,60.89
2019-05-29T17:04:18.272Z,61.97
2019-05-29T17:05:55.370Z,62.92
2019-05-29T17:07:30.794Z,56.94
2019-05-29T17:09:14.406Z,59.11
2019-05-29T17:10:50.901Z,61.04
2019-05-29T17:12:30.670Z,56.32
2019-05-29T17:14:30.457Z,53.59
2019-05-29T17:16:07.647Z,48.72
2019-05-29T17:17:43.545Z,51.08
2019-05-29T17:19:20.672Z,57.41
2019-05-29T17:20:59.105Z,53.51
2019-05-29T17:22:35.028Z,58.09
2019-05-29T17:24:11.468Z,61.39
2019-05-29T17:25:49.455Z,62.77
2019-05-29T17:27:29.888Z,55.58
2019-05-29T17:29:10.852Z,54.33
2019-05-29T17:30:50.331Z,54.84
2019-05-29T17:32:30.135Z,57.46
2019-05-29T17:34:12.422Z,54.95
2019-05-29T17:35:52.190Z,53.02
2019-05-29T17:37:32.031Z,63.27
2019-05-29T17:39:10.748Z,53.56
2019-05-29T17:40:53.539Z,55.89
2019-05-29T17:42:27.913Z,61.02
2019-05-29T17:44:08.684Z,62.01
2019-05-29T17:45:58.831Z,62.01
2019-05-29T17:47:40.083Z,62.73
2019-05-29T17:49:35.203Z,62.54
2019-05-29T17:51:10.008Z,61.11
2019-05-29T17:52:45.467Z,66.48
2019-05-29T17:54:21.811Z,74.58
2019-05-29T17:56:00.511Z,63.83
2019-05-29T17:57:36.648Z,69.80
2019-05-29T17:59:11.816Z,61.80
2019-05-29T18:00:53.278Z,60.80
2019-05-29T18:02:50.819Z,71.89
2019-05-29T18:04:10.714Z,65.84
2019-05-29T18:05:48.035Z,68.24
2019-05-29T18:07:24.779Z,71.91
2019-05-29T18:09:11.066Z,77.87
2019-05-29T18:10:46.464Z,68.96
2019-05-29T18:12:25.089Z,72.21
2019-05-29T18:14:07.574Z,73.43
2019-05-29T18:15:43.260Z,72.40
2019-05-29T18:17:23.748Z,72.83
2019-05-29T18:19:03.021Z,73.25
2019-05-29T18:20:39.067Z,72.71
2019-05-29T18:22:25.766Z,67.47
2019-05-29T18:24:08.287Z,72.20
2019-05-29T18:26:08.844Z,73.57
2019-05-29T18:27:45.443Z,69.52
2019-05-29T18:29:26.252Z,79.33
2019-05-29T18:31:15.370Z,73.15
2019-05-29T18:33:11.216Z,73.98
2019-05-29T18:34:51.787Z,76.27
2019-05-29T18:36:27.460Z,76.17
2019-05-29T18:38:04.188Z,77.95
2019-05-29T18:39:40.084Z,80.25
2019-05-29T18:41:16.181Z,79.20
2019-05-29T18:42:58.322Z,75.35
2019-05-29T18:44:36.463Z,79.13
2019-05-29T18:46:18.397Z,79.83
2019-05-29T18:47:59.163Z,80.85
2019-05-29T18:49:40.024Z,79.52
2019-05-29T18:51:20.443Z,80.55
2019-05-29T18:52:55.743Z,80.35
2019-05-29T18:54:34.997Z,81.30
2019-05-29T18:56:10.767Z,84.43
2019-05-29T18:57:48.624Z,86.88
2019-05-29T18:59:25.481Z,100.00
2019-05-29T19:01:05.354Z,100.00
2019-05-29T19:02:46.878Z,100.00
2019-05-29T19:04:25.548Z,100.00
2019-05-29T19:06:04.272Z,100.00
2019-05-29T19:07:41.242Z,100.00
2019-05-29T19:09:19.336Z,100.00
2019-05-29T19:11:00.222Z,100.00
2019-05-29T19:12:52.846Z,100.00
2019-05-29T19:14:40.623Z,100.00
2019-05-29T19:16:19.849Z,100.00
2019-05-29T19:18:10.789Z,100.00
2019-05-29T19:19:51.340Z,100.00
2019-05-29T19:21:33.166Z,100.00
2019-05-29T19:23:08.348Z,100.00
2019-05-29T19:24:48.603Z,100.00
2019-05-29T19:26:27.157Z,100.00
2019-05-29T19:28:06.838Z,100.00
2019-05-29T19:29:45.121Z,100.00
2019-05-29T19:31:27.129Z,100.00
2019-05-29T19:33:03.602Z,100.00
2019-05-29T19:34:38.928Z,100.00
2019-05-29T19:36:15.177Z,100.00
2019-05-29T19:37:51.213Z,100.00
2019-05-29T19:39:30.264Z,100.00
2019-05-29T19:41:08.438Z,100.00
2019-05-29T19:42:47.110Z,100.00
2019-05-29T19:44:24.073Z,100.00
2019-05-29T19:46:01.690Z,100.00
2019-05-29T19:47:43.176Z,100.00
2019-05-29T19:49:25.615Z,100.00
2019-05-29T19:51:06.010Z,100.00
2019-05-29T19:52:46.740Z,100.00
2019-05-29T19:54:25.406Z,100.00
2019-05-29T19:56:01.522Z,100.00
2019-05-29T19:57:53.946Z,100.00
2019-05-29T19:59:18.747Z,100.00
2019-05-29T20:00:54.528Z,100.00
2019-05-29T20:02:30.449Z,100.00
2019-05-29T20:04:11.176Z,100.00
2019-05-29T20:05:51.401Z,100.00
2019-05-29T20:07:35.262Z,100.00
2019-05-29T20:09:08.394Z,100.00
2019-05-29T20:10:45.063Z,100.00
2019-05-29T20:12:25.016Z,100.00
2019-05-29T20:14:01.750Z,100.00
2019-05-29T20:15:38.087Z,100.00
2019-05-29T20:17:21.875Z,100.00
2019-05-29T20:18:59.679Z,100.00
2019-05-29T20:20:42.252Z,100.00
2019-05-29T20:22:15.376Z,100.00
2019-05-29T20:23:51.634Z,100.00
2019-05-29T20:25:33.524Z,100.00
2019-05-29T20:27:08.667Z,100.00
2019-05-29T20:28:54.282Z,100.00
2019-05-29T20:30:42.730Z,100.00
2019-05-29T20:32:32.494Z,100.00
2019-05-29T20:34:09.698Z,100.00
2019-05-29T20:35:51.873Z,100.00
2019-05-29T20:37:27.698Z,100.00
2019-05-29T20:39:06.511Z,100.00
2019-05-29T20:40:42.372Z,100.00
2019-05-29T20:42:21.605Z,100.00
2019-05-29T20:43:57.325Z,100.00
2019-05-29T20:45:33.819Z,100.00
2019-05-29T20:47:11.406Z,100.00
2019-05-29T20:48:51.975Z,100.00
2019-05-29T20:50:29.102Z,100.00